LIEE Airport Information

Runway Information
Runway 14 Length 9196 ft width 148 ft
Elevation 9 ft Threshold 0 ft Heading 138
Runway 32 Length 9196 ft Width 148 ft
Elevation 4 ft Threshold 0 ft Heading 318
Airport Frequencies
Type APP Name CAGLIARI A Frequency 118.75 MHZ
Type GND Name Elmas GND Frequency 125.425 MHZ
Type MISC Name SAR Frequency 123.1 MHZ
Type TWR Name TWR Frequency 120.6 MHZ
Airport Navaids
Type VOR-DME Name Cagliari Frequency 113400 KHZ
Type NDB Name Cagliari Frequency 371 KHZ
Airport Weather Information & NOTAM
ADDS - METARS form results

(1329 UTC 16 April 2021)
Data provider http://aviationweather.gov/metar/data/
 
METAR text: LIEE 161320Z 11010KT 9999 -RA FEW015 BKN040 13/10 Q1012
Conditions at: LIEE (CAGLIARI/ELMAS(A, IT) observed 1320 UTC 16 April 2021
Temperature: 13.0°C (55°F)
Dewpoint: 10.0°C (50°F) [RH = 82%]
Pressure (altimeter): 29.88 inches Hg (1012.0 mb)
Winds: from the ESE (110 degrees) at 12 MPH (10 knots; 5.1 m/s)
Visibility: 6 or more miles (10+ km)
Ceiling: 4000 feet AGL
Clouds: few clouds at 1500 feet AGL
broken clouds at 4000 feet AGL
Weather: -RA  (light rain)

METAR text: LIEE 161250Z 09010KT 9999 -RA FEW015 BKN040 13/10 Q1012
Conditions at: LIEE (CAGLIARI/ELMAS(A, IT) observed 1250 UTC 16 April 2021
Temperature: 13.0°C (55°F)
Dewpoint: 10.0°C (50°F) [RH = 82%]
Pressure (altimeter): 29.88 inches Hg (1012.0 mb)
Winds: from the E (90 degrees) at 12 MPH (10 knots; 5.1 m/s)
Visibility: 6 or more miles (10+ km)
Ceiling: 4000 feet AGL
Clouds: few clouds at 1500 feet AGL
broken clouds at 4000 feet AGL
Weather: -RA  (light rain)

Forecast for: LIEE (CAGLIARI/ELMAS(A, IT)
Text: TAF LIEE 161100Z 1612/1712 02010KT 9999 SCT030
Forecast period: 1200 UTC 16 April 2021 to 1200 UTC 17 April 2021
Forecast type: FROM: standard forecast or significant change
Winds: from the NNE (20 degrees) at 12 MPH (10 knots; 5.1 m/s)
Visibility: 6 or more miles (10+ km)
Ceiling: at least 12,000 feet AGL
Clouds: scattered clouds at 3000 feet AGL
Weather: no significant weather forecast for this period
Text: TEMPO 1612/1624 SHRA
Forecast period: 1200 UTC 16 April 2021 to 0000 UTC 17 April 2021
Forecast type: TEMPORARY: The following changes expected for less than half the time period
Visibility: missing
Ceiling: unknown
Clouds: missing
Weather: SHRA  (rain showers)